EPWRLZIB

Guest
Details From EPWR - STRACHOWICE
To LZIB - Bratislava/M.R. Stefanik
Flight Number -
Tags generated
Created
Modified
Stats Distance 179 nm / 331 km
Max Altitude 17,100 ft / 5,212 m
Waypoints 3
Social Downloads 0
Likes 0
Share VATSIM

Download

Looking for another format? Having issues loading an existing format? Contact us
Advertisement - Login to hide

Notes

Basic altitude profile: - Ascent Rate: 2500ft/min - Ascent Speed: 250kts - Cruise Altitude: 35000ft - Cruise Speed: 420kts - Descent Rate: 1500ft/min - Descent Speed: 250kts Options: - Use NATs: yes - Use PACOTS: yes - Use low airways: yes - Use high airways: yes

Route

EPWR LABUK LZIB

ID Type Via Altitude Latitude Longitude Leg Dist Tot Dist Heading (true) Name
O EPWR APT - 0 ft / 0 m 51.10388˚ 16.88189˚ - 0 nm - STRACHOWICE
LABUK FIX - 17,100 ft / 5,212 m 49.49853˚ 17.41079˚ 98 nm 98 nm 168° / 168° -
O LZIB APT - 0 ft / 0 m 48.16831˚ 17.21560˚ 80 nm 178 nm 186° / 185° Bratislava/M.R. Stefanik

Altitude Profile

Advertisement - Login to hide

Weather


0- 5 10 15 20 25 30 35+ Temperature / ° C

Clouds and Precipitation
Forecast for 2017-12-11 12:00 UTC. Updated 39 minutes ago

Ground ~20,000 ft ~40,000 ft Winds

EPWR

Details ICAO EPWR (WRO)
Name STRACHOWICE
Region Poland
Timezone Europe/Warsaw (UTC+1.0)
Stats Elevation 404 ft / 123 m (AMSL)
Location 51.103882° 16.881892°
Runways 1
Magnetic Variation 4.612° E

METAR

EPWR 110730Z 20010KT 170V230 CAVOK 07/02 Q0991

Decode

TAF

TAF EPWR 110530Z 1106/1206 17010KT CAVOK TEMPO 1118/1206 20018G35KT

Decode

Departure Runways

ID Width Length Bearing (true) Bearing (mag) Surface Threshold Offset Overrun Length
12 197 ft / 60 m 8,192 ft / 2,497 m 115.99° 111.38° Concrete 0 ft / 0 m 0 ft / 0 m
30 197 ft / 60 m 8,192 ft / 2,497 m 296.01° 291.40° Concrete 0 ft / 0 m 0 ft / 0 m

LZIB

Details ICAO LZIB (BTS)
Name Bratislava/M.R. Stefanik
Region Slovakia
Timezone Europe/Bratislava (UTC+1.0)
Stats Elevation 436 ft / 133 m (AMSL)
Location 48.168314° 17.215597°
Runways 2
Magnetic Variation 4.403° E

METAR

LZIB 110730Z 14006KT 110V180 9999 SCT025 06/02 Q0997 NOSIG

Decode

TAF

Not found

Destination Runways

ID Width Length Bearing (true) Bearing (mag) Surface Threshold Offset Overrun Length
04 197 ft / 60 m 9,540 ft / 2,908 m 43.80° 39.40° Concrete 0 ft / 0 m 7 ft / 2 m
13 148 ft / 45 m 9,688 ft / 2,953 m 134.02° 129.62° Concrete 0 ft / 0 m 98 ft / 30 m
22 197 ft / 60 m 9,540 ft / 2,908 m 223.82° 219.42° Concrete 0 ft / 0 m 49 ft / 15 m
31 148 ft / 45 m 9,688 ft / 2,953 m 314.04° 309.64° Concrete 0 ft / 0 m 810 ft / 247 m

Approach Navaids

Runway Type Ident Frequency Range Bearing (true) Bearing (mag) Slope Elevation
22 Glidescope OKR 108.30 MHz 10 nm / 19 km 223.83° 219.42° 3.00° 436 ft / 133 m (AMSL)
22 DME OKR 108.30 MHz 25 nm / 46 km - - - 436 ft / 133 m (AMSL)
31 Glidescope OB 110.70 MHz 10 nm / 19 km 313.99° 309.58° 3.00° 433 ft / 132 m (AMSL)
31 DME OB 110.70 MHz 25 nm / 46 km - - - 433 ft / 132 m (AMSL)

Popular Alternatives